»·PEaware :: N736RE KBUR-KLAS

N736RE :: KBUR-KLAS

FLIGHT INFORMATION

Flight Status: Arrived
Operator: Privately registered:
United States
More flights under this callsign
Pilot: Wes T. (5776)
Aircraft: CESSNA 182 SKYLANE
(C182)
More flights by this aircraft type
Origin: KBUR Bob Hope-Burbank
United States
Destination: KLAS McCarran Intl
United States
More flights between these airports :: More routes between these airports
Route: +VNY1 DAG CRESO3
File this flight plan on PilotEdge
Remarks: I-05 test
Altitude:
(Current/Filed)
13,000ft
Speed:
(Current/Filed)
124kts
Departed: 08-Apr-15 03:55 PM
Arrived: 08-Apr-15 05:45 PM
Distance/Time
Traveled:
193nm/1:50
Distance/Time
To Go:
Arrived

Flight Plot

Page will automatically refresh every two minutes.


Map Options




Map Legend


Flown Route
Filed Route
Departure Airport
Arrival Airport
Navaid (VOR, NDB)
Fix

Horizontal Profiles

Position Reports

Time Latitude Longitude Heading Altitude Ground
Speed
08-Apr-15 15:38 34.195981 -118.366639 180 781ft 0kts
08-Apr-15 15:39 34.195981 -118.366639 180 781ft 0kts
08-Apr-15 15:40 34.195981 -118.366639 180 781ft 0kts
08-Apr-15 15:41 34.195981 -118.366639 180 781ft 0kts
08-Apr-15 15:42 34.195981 -118.366639 180 781ft 0kts
08-Apr-15 15:43 34.195979 -118.366639 180 781ft 0kts
08-Apr-15 15:44 34.195977 -118.366639 180 781ft 0kts
08-Apr-15 15:45 34.195975 -118.366639 180 781ft 0kts
08-Apr-15 15:46 34.195973 -118.366639 180 781ft 0kts
08-Apr-15 15:47 34.195963 -118.366639 179 781ft 1kts
08-Apr-15 15:48 34.196720 -118.365072 93 781ft 9kts
08-Apr-15 15:49 34.196658 -118.360674 91 781ft 12kts
08-Apr-15 15:50 34.195622 -118.357059 166 781ft 14kts
08-Apr-15 15:51 34.193980 -118.356224 122 781ft 0kts
08-Apr-15 15:52 34.193951 -118.356152 106 781ft 0kts
08-Apr-15 15:53 34.193933 -118.355797 90 781ft 8kts
08-Apr-15 15:54 34.207510 -118.360125 347 1184ft 85kts
08-Apr-15 15:55 34.221773 -118.382537 286 2553ft 84kts
08-Apr-15 15:56 34.228609 -118.413358 298 4151ft 89kts
08-Apr-15 15:57 34.239122 -118.442071 296 5116ft 83kts
08-Apr-15 15:58 34.248287 -118.468010 300 5921ft 84kts
08-Apr-15 15:59 34.258590 -118.494441 294 6630ft 88kts
08-Apr-15 16:00 34.268328 -118.522168 297 7315ft 88kts
08-Apr-15 16:01 34.279212 -118.549125 297 7949ft 89kts
08-Apr-15 16:02 34.289464 -118.576595 299 8550ft 89kts
08-Apr-15 16:03 34.299694 -118.604146 296 9129ft 91kts
08-Apr-15 16:04 34.318999 -118.612828 42 9676ft 106kts
08-Apr-15 16:05 34.332190 -118.579199 49 10446ft 110kts
08-Apr-15 16:06 34.348353 -118.546014 54 10826ft 118kts
08-Apr-15 16:07 34.364044 -118.508885 62 11091ft 128kts
08-Apr-15 16:08 34.377964 -118.470302 55 11510ft 120kts
08-Apr-15 16:09 34.396927 -118.438117 37 11805ft 124kts
08-Apr-15 16:10 34.420710 -118.404895 47 12027ft 125kts
08-Apr-15 16:11 34.439574 -118.373782 39 12542ft 107kts
08-Apr-15 16:12 34.459615 -118.346268 42 12888ft 112kts
08-Apr-15 16:13 34.480054 -118.315237 40 13055ft 121kts
08-Apr-15 16:14 34.501838 -118.282087 41 13119ft 127kts
08-Apr-15 16:15 34.523129 -118.245663 52 13108ft 136kts
08-Apr-15 16:16 34.542648 -118.206157 45 13107ft 136kts
08-Apr-15 16:17 34.564873 -118.168819 45 13107ft 136kts
08-Apr-15 16:18 34.586989 -118.131683 45 13104ft 134kts
08-Apr-15 16:19 34.608907 -118.094904 45 13103ft 134kts
08-Apr-15 16:20 34.630000 -118.057219 67 13101ft 141kts
08-Apr-15 16:21 34.635450 -118.009607 71 13114ft 141kts
08-Apr-15 16:22 34.642194 -117.962619 75 13112ft 142kts
08-Apr-15 16:23 34.647660 -117.915079 74 13110ft 141kts
08-Apr-15 16:24 34.653268 -117.867550 74 13109ft 142kts
08-Apr-15 16:25 34.659048 -117.819886 74 13110ft 142kts
08-Apr-15 16:26 34.667381 -117.769194 69 13122ft 157kts
08-Apr-15 16:27 34.679725 -117.719771 72 13040ft 146kts
08-Apr-15 16:28 34.690673 -117.673348 63 13064ft 138kts
08-Apr-15 16:29 34.701757 -117.627965 66 13083ft 140kts
08-Apr-15 16:30 34.713021 -117.582063 65 13086ft 142kts
08-Apr-15 16:31 34.724514 -117.535545 64 13081ft 143kts
08-Apr-15 16:32 34.734356 -117.496881 64 13076ft 143kts
08-Apr-15 16:33 34.748336 -117.442487 65 13073ft 144kts
08-Apr-15 16:34 34.757840 -117.403542 64 13068ft 142kts
08-Apr-15 16:35 34.768580 -117.357991 65 13077ft 139kts
08-Apr-15 16:36 34.779222 -117.312843 64 13081ft 138kts
08-Apr-15 16:37 34.790510 -117.267617 64 13086ft 141kts
08-Apr-15 16:38 34.802609 -117.221553 64 13076ft 144kts
08-Apr-15 16:39 34.817970 -117.173935 62 13256ft 164kts
08-Apr-15 16:40 34.834490 -117.123665 65 13091ft 155kts
08-Apr-15 16:41 34.847627 -117.074912 63 13164ft 137kts
08-Apr-15 16:42 34.859657 -117.029148 66 13151ft 143kts
08-Apr-15 16:43 34.871014 -116.982326 66 13147ft 145kts
08-Apr-15 16:44 34.880673 -116.933938 69 13137ft 146kts
08-Apr-15 16:45 34.889571 -116.885689 69 13131ft 145kts
08-Apr-15 16:46 34.899794 -116.838594 66 13132ft 143kts
08-Apr-15 16:47 34.911166 -116.791973 65 13133ft 143kts
08-Apr-15 16:48 34.922725 -116.745336 65 13134ft 143kts
08-Apr-15 16:49 34.934387 -116.698604 65 13140ft 143kts
08-Apr-15 16:50 34.946036 -116.651885 65 13138ft 143kts
08-Apr-15 16:51 34.957743 -116.605351 65 13138ft 143kts
08-Apr-15 16:52 34.973479 -116.558709 54 13263ft 165kts
08-Apr-15 16:53 34.995798 -116.512231 52 13110ft 152kts
08-Apr-15 16:54 35.015641 -116.467833 54 13089ft 145kts
08-Apr-15 16:55 35.034074 -116.424902 54 13095ft 141kts
08-Apr-15 16:56 35.052384 -116.382336 54 13098ft 141kts
08-Apr-15 16:57 35.070754 -116.339913 53 13098ft 141kts
08-Apr-15 16:58 35.089225 -116.297522 53 13097ft 141kts
08-Apr-15 16:59 35.107797 -116.255153 53 13097ft 141kts
08-Apr-15 17:00 35.126031 -116.213025 53 13101ft 140kts
08-Apr-15 17:01 35.144272 -116.170967 53 13100ft 139kts
08-Apr-15 17:02 35.162634 -116.129053 53 13096ft 140kts
08-Apr-15 17:03 35.181455 -116.087024 53 13098ft 140kts
08-Apr-15 17:04 35.200398 -116.044929 52 13098ft 141kts
08-Apr-15 17:05 35.219220 -116.002880 54 13105ft 141kts
08-Apr-15 17:06 35.236952 -115.960084 54 13097ft 140kts
08-Apr-15 17:07 35.254605 -115.917439 54 13093ft 140kts
08-Apr-15 17:08 35.272188 -115.874945 54 13092ft 139kts
08-Apr-15 17:09 35.289639 -115.832539 53 13092ft 139kts
08-Apr-15 17:10 35.310022 -115.792886 35 12828ft 139kts
08-Apr-15 17:11 35.337722 -115.760665 33 12379ft 137kts
08-Apr-15 17:12 35.364368 -115.729305 39 12203ft 124kts
08-Apr-15 17:13 35.385894 -115.697381 39 12203ft 119kts
08-Apr-15 17:14 35.406590 -115.666399 39 12212ft 117kts
08-Apr-15 17:15 35.427231 -115.635459 39 12209ft 116kts
08-Apr-15 17:16 35.447798 -115.604658 38 12210ft 116kts
08-Apr-15 17:17 35.468419 -115.573871 38 12205ft 116kts
08-Apr-15 17:18 35.489490 -115.544509 35 12201ft 112kts
08-Apr-15 17:19 35.510862 -115.516652 35 12184ft 110kts
08-Apr-15 17:20 35.531670 -115.489715 33 12148ft 111kts
08-Apr-15 17:21 35.556808 -115.461033 35 11544ft 133kts
08-Apr-15 17:22 35.584301 -115.428260 35 10790ft 141kts
08-Apr-15 17:23 35.613416 -115.394911 35 9992ft 145kts
08-Apr-15 17:24 35.644746 -115.360538 44 9217ft 159kts
08-Apr-15 17:25 35.673412 -115.322518 49 9125ft 150kts
08-Apr-15 17:26 35.699467 -115.283719 56 8997ft 151kts
08-Apr-15 17:27 35.726266 -115.241146 52 8620ft 170kts
08-Apr-15 17:28 35.755442 -115.196676 53 7693ft 150kts
08-Apr-15 17:29 35.781068 -115.159955 49 7273ft 138kts
08-Apr-15 17:30 35.806810 -115.126993 48 7184ft 128kts
08-Apr-15 17:31 35.832355 -115.097565 45 7292ft 129kts
08-Apr-15 17:32 35.860248 -115.065110 52 7144ft 128kts
08-Apr-15 17:33 35.886721 -115.030472 50 7311ft 145kts
08-Apr-15 17:34 35.913604 -114.989496 51 7194ft 141kts
08-Apr-15 17:35 35.938951 -114.961426 11 7044ft 117kts
08-Apr-15 17:36 35.964690 -114.953681 348 7109ft 119kts
08-Apr-15 17:37 35.997074 -114.962197 346 6397ft 115kts
08-Apr-15 17:38 36.031752 -114.974504 339 5300ft 114kts
08-Apr-15 17:39 36.054629 -114.986128 329 5064ft 105kts
08-Apr-15 17:40 36.072616 -115.014161 283 4612ft 121kts
08-Apr-15 17:41 36.073354 -115.059877 272 3706ft 123kts
08-Apr-15 17:42 36.073756 -115.097507 270 2849ft 98kts
08-Apr-15 17:43 36.073685 -115.124908 264 2257ft 68kts
08-Apr-15 17:44 36.073632 -115.138234 269 2184ft 23kts
08-Apr-15 17:45 36.074297 -115.139521 62 2184ft 0kts
08-Apr-15 17:46 36.074298 -115.139520 62 2184ft 0kts
08-Apr-15 17:47 36.074298 -115.139519 62 2184ft 0kts
08-Apr-15 17:48 36.074305 -115.139501 65 2184ft 2kts
08-Apr-15 17:49 36.075963 -115.137869 357 2184ft 15kts
08-Apr-15 17:50 36.077480 -115.142180 268 2184ft 19kts
08-Apr-15 17:51 36.077741 -115.148744 273 2184ft 16kts
08-Apr-15 17:52 36.077940 -115.154665 268 2184ft 21kts
08-Apr-15 17:53 36.077935 -115.161083 272 2184ft 15kts
08-Apr-15 17:54 36.077965 -115.164392 272 2184ft 0kts
08-Apr-15 17:55 36.077965 -115.164393 272 2184ft 0kts
08-Apr-15 17:56 36.077860 -115.169995 277 2184ft 12kts
08-Apr-15 17:57 36.081405 -115.169572 288 2184ft 7kts
08-Apr-15 17:58 36.081611 -115.170157 87 2184ft 0kts

Navigation Log

Ident Type
Flight plan parsing failed, navigation log unavailable